Orbital elements of GLOBALSTAR M097
| Launched | 5 February 2013 |
| Flight ended | – |
| Launch site | Tyuratam Missile and Space Center, Kazakhstan (Also known as Baikonur Cosmodrome) |
| Owner | Globalstar |
| NORAD ID | 39072 |
| Date fetched |
Epoch osculation |
Inc. [°] |
Ecc. | RA asc node [hr] |
Arg Peri. [°] |
Mean anom [°] |
Mean motion [rev/day] |
Abs. mag |
| Date fetched |
Epoch osculation |
Inc. [°] |
Ecc. | RA asc node [hr] |
Arg Peri. [°] |
Mean anom [°] |
Mean motion [rev/day] |
Abs. mag |
| 2026 May 01 17:56 | 2026 May 01 04:56:50 | 52.0073 | 0.00005 | 1.7564 | 77.8828 | 282.2094 | 12.62260 | 7.500 |
| 2026 Apr 30 17:56 | 2026 Apr 30 09:56:35 | 52.0072 | 0.00005 | 1.9170 | 77.6158 | 282.2094 | 12.62260 | 7.500 |
| 2026 Apr 29 17:57 | 2026 Apr 29 11:08:16 | 52.0069 | 0.00005 | 2.1099 | 77.2634 | 282.2094 | 12.62260 | 7.500 |
| 2026 Apr 28 17:56 | 2026 Apr 28 04:43:52 | 52.0067 | 0.00005 | 2.3670 | 76.9182 | 282.2094 | 12.62260 | 7.500 |
| 2026 Apr 27 17:58 | 2026 Apr 27 11:37:38 | 52.0066 | 0.00004 | 2.5116 | 76.7351 | 282.2094 | 12.62260 | 7.500 |
| 2026 Apr 26 17:58 | 2026 Apr 26 10:55:18 | 52.0065 | 0.00004 | 2.7205 | 76.4160 | 282.2094 | 12.62260 | 7.500 |
| 2026 Apr 25 17:58 | 2026 Apr 25 04:30:53 | 52.0062 | 0.00004 | 2.9776 | 76.9594 | 282.2094 | 12.62260 | 7.500 |
| 2026 Apr 24 17:59 | 2026 Apr 24 05:42:35 | 52.0060 | 0.00004 | 3.1704 | 77.4583 | 282.2094 | 12.62260 | 7.500 |
| 2026 Apr 23 17:57 | 2026 Apr 23 06:54:16 | 52.0058 | 0.00004 | 3.3632 | 78.0275 | 282.2094 | 12.62260 | 7.500 |
| 2026 Apr 22 17:57 | 2026 Apr 22 06:11:56 | 52.0056 | 0.00004 | 3.5721 | 78.9079 | 282.2094 | 12.62260 | 7.500 |
| 2026 Apr 21 17:57 | 2026 Apr 21 05:29:36 | 52.0057 | 0.00003 | 3.7811 | 80.2338 | 282.2094 | 12.62260 | 7.500 |
| 2026 Apr 20 17:57 | 2026 Apr 20 04:47:16 | 52.0055 | 0.00003 | 3.9900 | 81.7716 | 282.2094 | 12.62260 | 7.500 |
| 2026 Apr 19 17:58 | 2026 Apr 19 05:58:57 | 52.0049 | 0.00003 | 4.1828 | 83.2569 | 282.2094 | 12.62260 | 7.500 |
| 2026 Apr 18 17:56 | 2026 Apr 18 05:16:37 | 52.0047 | 0.00003 | 4.3917 | 85.5024 | 282.2094 | 12.62260 | 7.500 |
| 2026 Apr 16 17:57 | 2026 Apr 16 05:45:59 | 52.0043 | 0.00003 | 4.7934 | 90.8195 | 282.2094 | 12.62260 | 7.500 |
| 2026 Apr 14 17:57 | 2026 Apr 14 08:09:22 | 52.0045 | 0.00003 | 5.1791 | 96.3480 | 282.2094 | 12.62260 | 7.500 |
| 2026 Apr 13 17:57 | 2026 Apr 13 05:33:00 | 52.0045 | 0.00003 | 5.4041 | 100.7143 | 282.2094 | 12.62260 | 7.500 |
| 2026 Apr 12 17:57 | 2026 Apr 12 06:44:42 | 52.0044 | 0.00003 | 5.5969 | 104.0561 | 282.2094 | 12.62260 | 7.500 |
| 2026 Apr 11 17:57 | 2026 Apr 11 06:02:22 | 52.0036 | 0.00003 | 5.8058 | 105.4615 | 282.2094 | 12.62260 | 7.500 |
| 2026 Apr 10 17:58 | 2026 Apr 10 05:20:02 | 52.0035 | 0.00003 | 6.0148 | 108.7805 | 282.2094 | 12.62260 | 7.500 |
| 2026 Apr 09 18:01 | 2026 Apr 09 06:31:43 | 52.0035 | 0.00003 | 6.2076 | 111.1111 | 282.2094 | 12.62260 | 7.500 |
| 2026 Apr 08 17:57 | 2026 Apr 08 05:49:23 | 52.0040 | 0.00003 | 6.4165 | 116.0497 | 282.2094 | 12.62260 | 7.500 |
| 2026 Apr 07 17:57 | 2026 Apr 07 07:01:05 | 52.0038 | 0.00003 | 6.6094 | 118.2739 | 282.2094 | 12.62260 | 7.500 |
| 2026 Apr 06 17:57 | 2026 Apr 06 04:24:43 | 52.0037 | 0.00003 | 6.8343 | 123.1815 | 282.2094 | 12.62260 | 7.500 |
| 2026 Apr 05 17:56 | 2026 Apr 05 09:24:28 | 52.0030 | 0.00003 | 6.9951 | 122.6818 | 282.2094 | 12.62260 | 7.500 |
| 2026 Apr 04 17:57 | 2026 Apr 04 04:54:05 | 52.0031 | 0.00004 | 7.2361 | 126.4646 | 282.2094 | 12.62260 | 7.500 |